sensor_id;sensor_type;location;lat;lon;timestamp;pressure;altitude;pressure_sealevel;temperature;humidity
73692;BME280;61996;49.910;35.562;2023-07-13T00:00:08;99268.53;;;21.65;51.11
73692;BME280;61996;49.910;35.562;2023-07-13T00:03:12;99273.19;;;21.62;51.23
73692;BME280;61996;49.910;35.562;2023-07-13T00:06:15;99271.72;;;21.60;50.87
73692;BME280;61996;49.910;35.562;2023-07-13T00:09:18;99274.72;;;21.57;51.22
73692;BME280;61996;49.910;35.562;2023-07-13T00:12:24;99278.25;;;21.57;51.28
73692;BME280;61996;49.910;35.562;2023-07-13T00:15:27;99273.72;;;21.58;50.87
73692;BME280;61996;49.910;35.562;2023-07-13T00:18:33;99269.69;;;21.54;51.02
73692;BME280;61996;49.910;35.562;2023-07-13T00:21:36;99255.31;;;21.55;51.09
73692;BME280;61996;49.910;35.562;2023-07-13T00:24:38;99263.50;;;21.53;50.92
73692;BME280;61996;49.910;35.562;2023-07-13T00:27:44;99264.34;;;21.54;51.02
73692;BME280;61996;49.910;35.562;2023-07-13T00:30:50;99270.03;;;21.51;51.33
73692;BME280;61996;49.910;35.562;2023-07-13T00:33:53;99272.72;;;21.51;51.16
73692;BME280;61996;49.910;35.562;2023-07-13T00:36:55;99270.19;;;21.49;51.10
73692;BME280;61996;49.910;35.562;2023-07-13T00:39:58;99269.38;;;21.49;51.13
73692;BME280;61996;49.910;35.562;2023-07-13T00:43:02;99264.31;;;21.46;51.24
73692;BME280;61996;49.910;35.562;2023-07-13T00:46:16;99264.16;;;21.47;51.06
73692;BME280;61996;49.910;35.562;2023-07-13T00:49:20;99259.50;;;21.49;50.86
73692;BME280;61996;49.910;35.562;2023-07-13T00:52:23;99262.00;;;21.51;50.86
73692;BME280;61996;49.910;35.562;2023-07-13T00:55:26;99256.97;;;21.48;51.12
73692;BME280;61996;49.910;35.562;2023-07-13T00:58:31;99258.81;;;21.47;51.25
73692;BME280;61996;49.910;35.562;2023-07-13T01:01:34;99260.81;;;21.45;50.96
73692;BME280;61996;49.910;35.562;2023-07-13T01:04:38;99265.34;;;21.45;51.18
73692;BME280;61996;49.910;35.562;2023-07-13T01:07:42;99261.16;;;21.42;51.12
73692;BME280;61996;49.910;35.562;2023-07-13T01:10:50;99263.97;;;21.41;51.37
73692;BME280;61996;49.910;35.562;2023-07-13T01:13:55;99260.47;;;21.40;51.14
73692;BME280;61996;49.910;35.562;2023-07-13T01:16:57;99262.13;;;21.41;51.02
73692;BME280;61996;49.910;35.562;2023-07-13T01:20:02;99263.13;;;21.40;51.20
73692;BME280;61996;49.910;35.562;2023-07-13T01:23:09;99266.31;;;21.36;51.30
73692;BME280;61996;49.910;35.562;2023-07-13T01:26:14;99274.00;;;21.39;51.35
73692;BME280;61996;49.910;35.562;2023-07-13T01:29:17;99266.47;;;21.34;51.36
73692;BME280;61996;49.910;35.562;2023-07-13T01:32:20;99269.97;;;21.34;51.31
73692;BME280;61996;49.910;35.562;2023-07-13T01:35:26;99261.28;;;21.32;51.49
73692;BME280;61996;49.910;35.562;2023-07-13T01:38:30;99265.97;;;21.30;51.32
73692;BME280;61996;49.910;35.562;2023-07-13T01:41:33;99275.16;;;21.28;51.52
73692;BME280;61996;49.910;35.562;2023-07-13T01:44:36;99270.66;;;21.28;51.39
73692;BME280;61996;49.910;35.562;2023-07-13T01:47:39;99265.97;;;21.30;51.40
73692;BME280;61996;49.910;35.562;2023-07-13T01:50:42;99269.81;;;21.28;51.63
73692;BME280;61996;49.910;35.562;2023-07-13T01:53:46;99268.66;;;21.30;51.18
73692;BME280;61996;49.910;35.562;2023-07-13T01:56:49;99279.34;;;21.30;51.52
73692;BME280;61996;49.910;35.562;2023-07-13T01:59:52;99273.00;;;21.31;51.33
73692;BME280;61996;49.910;35.562;2023-07-13T02:02:55;99275.16;;;21.28;51.45
73692;BME280;61996;49.910;35.562;2023-07-13T02:05:58;99275.28;;;21.26;51.33
73692;BME280;61996;49.910;35.562;2023-07-13T02:09:02;99277.50;;;21.31;51.40
73692;BME280;61996;49.910;35.562;2023-07-13T02:12:05;99275.84;;;21.30;51.21
73692;BME280;61996;49.910;35.562;2023-07-13T02:15:09;99267.81;;;21.38;51.20
73692;BME280;61996;49.910;35.562;2023-07-13T02:18:12;99267.66;;;21.40;51.17
73692;BME280;61996;49.910;35.562;2023-07-13T02:21:18;99270.16;;;21.33;51.22
73692;BME280;61996;49.910;35.562;2023-07-13T02:24:22;99266.25;;;21.27;51.29
73692;BME280;61996;49.910;35.562;2023-07-13T02:27:25;99262.91;;;21.25;51.50
73692;BME280;61996;49.910;35.562;2023-07-13T02:30:28;99264.47;;;21.28;51.31
73692;BME280;61996;49.910;35.562;2023-07-13T02:33:31;99265.31;;;21.28;51.34
73692;BME280;61996;49.910;35.562;2023-07-13T02:36:34;99260.91;;;21.27;51.35
73692;BME280;61996;49.910;35.562;2023-07-13T02:39:38;99266.97;;;21.29;51.07
73692;BME280;61996;49.910;35.562;2023-07-13T02:42:41;99270.66;;;21.28;51.19
73692;BME280;61996;49.910;35.562;2023-07-13T02:45:44;99267.81;;;21.30;51.26
73692;BME280;61996;49.910;35.562;2023-07-13T02:48:47;99269.66;;;21.29;51.23
73692;BME280;61996;49.910;35.562;2023-07-13T02:51:50;99269.47;;;21.31;51.12
73692;BME280;61996;49.910;35.562;2023-07-13T02:54:54;99279.34;;;21.30;51.29
73692;BME280;61996;49.910;35.562;2023-07-13T02:57:57;99272.66;;;21.34;51.16
73692;BME280;61996;49.910;35.562;2023-07-13T03:01:05;99275.00;;;21.29;51.12
73692;BME280;61996;49.910;35.562;2023-07-13T03:04:08;99273.16;;;21.30;51.08
73692;BME280;61996;49.910;35.562;2023-07-13T03:07:11;99275.00;;;21.29;51.13
73692;BME280;61996;49.910;35.562;2023-07-13T03:10:16;99285.69;;;21.29;51.25
73692;BME280;61996;49.910;35.562;2023-07-13T03:13:19;99283.84;;;21.30;51.17
73692;BME280;61996;49.910;35.562;2023-07-13T03:16:22;99283.84;;;21.30;51.37
73692;BME280;61996;49.910;35.562;2023-07-13T03:19:25;99292.72;;;21.30;50.97
73692;BME280;61996;49.910;35.562;2023-07-13T03:22:28;99290.88;;;21.31;51.14
73692;BME280;61996;49.910;35.562;2023-07-13T03:25:32;99295.66;;;21.27;51.07
73692;BME280;61996;49.910;35.562;2023-07-13T03:28:35;99299.75;;;21.31;51.12
73692;BME280;61996;49.910;35.562;2023-07-13T03:31:39;99300.91;;;21.29;50.84
73692;BME280;61996;49.910;35.562;2023-07-13T03:34:42;99310.44;;;21.31;51.05
73692;BME280;61996;49.910;35.562;2023-07-13T03:37:45;99313.09;;;21.31;51.13
73692;BME280;61996;49.910;35.562;2023-07-13T03:40:49;99308.75;;;21.30;50.88
73692;BME280;61996;49.910;35.562;2023-07-13T03:43:52;99322.13;;;21.30;50.96
73692;BME280;61996;49.910;35.562;2023-07-13T03:46:56;99321.31;;;21.30;50.99
73692;BME280;61996;49.910;35.562;2023-07-13T03:49:59;99325.81;;;21.29;50.99
73692;BME280;61996;49.910;35.562;2023-07-13T03:53:02;99324.16;;;21.28;51.07
73692;BME280;61996;49.910;35.562;2023-07-13T03:56:06;99327.09;;;21.25;50.99
73692;BME280;61996;49.910;35.562;2023-07-13T03:59:09;99331.00;;;21.31;51.09
73692;BME280;61996;49.910;35.562;2023-07-13T04:02:12;99331.16;;;21.29;51.24
73692;BME280;61996;49.910;35.562;2023-07-13T04:05:15;99329.59;;;21.27;51.04
73692;BME280;61996;49.910;35.562;2023-07-13T04:08:18;99331.84;;;21.31;51.22
73692;BME280;61996;49.910;35.562;2023-07-13T04:11:23;99340.53;;;21.33;50.95
73692;BME280;61996;49.910;35.562;2023-07-13T04:14:26;99342.53;;;21.31;50.57
73692;BME280;61996;49.910;35.562;2023-07-13T04:17:29;99338.84;;;21.32;51.06
73692;BME280;61996;49.910;35.562;2023-07-13T04:20:32;99340.53;;;21.33;51.02
73692;BME280;61996;49.910;35.562;2023-07-13T04:23:35;99337.38;;;21.38;50.80
73692;BME280;61996;49.910;35.562;2023-07-13T04:26:39;99339.03;;;21.39;51.05
73692;BME280;61996;49.910;35.562;2023-07-13T04:29:42;99342.06;;;21.36;50.70
73692;BME280;61996;49.910;35.562;2023-07-13T04:32:45;99345.56;;;21.37;50.94
73692;BME280;61996;49.910;35.562;2023-07-13T04:35:48;99339.22;;;21.38;51.04
73692;BME280;61996;49.910;35.562;2023-07-13T04:38:51;99341.88;;;21.38;51.01
73692;BME280;61996;49.910;35.562;2023-07-13T04:41:56;99340.72;;;21.40;51.11
73692;BME280;61996;49.910;35.562;2023-07-13T04:44:59;99334.56;;;21.48;50.92
73692;BME280;61996;49.910;35.562;2023-07-13T04:48:02;99344.59;;;21.46;50.94
73692;BME280;61996;49.910;35.562;2023-07-13T04:51:06;99339.75;;;21.49;51.00
73692;BME280;61996;49.910;35.562;2023-07-13T04:54:09;99340.59;;;21.50;50.86
73692;BME280;61996;49.910;35.562;2023-07-13T04:57:13;99332.91;;;21.55;50.84
73692;BME280;61996;49.910;35.562;2023-07-13T05:00:16;99337.28;;;21.56;50.80
73692;BME280;61996;49.910;35.562;2023-07-13T05:03:19;99337.94;;;21.58;50.82
73692;BME280;61996;49.910;35.562;2023-07-13T05:06:22;99337.09;;;21.57;50.95
73692;BME280;61996;49.910;35.562;2023-07-13T05:09:25;99347.63;;;21.59;50.92
73692;BME280;61996;49.910;35.562;2023-07-13T05:12:29;99343.78;;;21.61;50.59
73692;BME280;61996;49.910;35.562;2023-07-13T05:15:32;99347.28;;;21.62;50.88
73692;BME280;61996;49.910;35.562;2023-07-13T05:18:35;99346.16;;;21.65;51.04
73692;BME280;61996;49.910;35.562;2023-07-13T05:21:42;99339.44;;;21.69;50.56
73692;BME280;61996;49.910;35.562;2023-07-13T05:24:45;99350.31;;;21.67;50.68
73692;BME280;61996;49.910;35.562;2023-07-13T05:27:49;99342.28;;;21.67;50.52
73692;BME280;61996;49.910;35.562;2023-07-13T05:30:52;99352.81;;;21.69;50.29
73692;BME280;61996;49.910;35.562;2023-07-13T05:33:56;99359.19;;;21.68;50.94
73692;BME280;61996;49.910;35.562;2023-07-13T05:36:59;99354.66;;;21.68;50.69
73692;BME280;61996;49.910;35.562;2023-07-13T05:40:01;99347.81;;;21.66;51.01
73692;BME280;61996;49.910;35.562;2023-07-13T05:43:06;99351.84;;;21.70;50.86
73692;BME280;61996;49.910;35.562;2023-07-13T05:46:08;99350.84;;;21.71;50.71
73692;BME280;61996;49.910;35.562;2023-07-13T05:49:11;99352.69;;;21.70;50.59
73692;BME280;61996;49.910;35.562;2023-07-13T05:52:14;99352.69;;;21.70;50.77
73692;BME280;61996;49.910;35.562;2023-07-13T05:55:17;99355.19;;;21.72;50.67
73692;BME280;61996;49.910;35.562;2023-07-13T05:58:21;99365.72;;;21.73;50.77
73692;BME280;61996;49.910;35.562;2023-07-13T06:01:24;99353.00;;;21.75;50.67
73692;BME280;61996;49.910;35.562;2023-07-13T06:04:27;99353.72;;;21.77;50.64
73692;BME280;61996;49.910;35.562;2023-07-13T06:07:30;99362.06;;;21.74;50.98
73692;BME280;61996;49.910;35.562;2023-07-13T06:10:33;99355.38;;;21.78;51.04
73692;BME280;61996;49.910;35.562;2023-07-13T06:13:37;99347.84;;;21.82;50.69
73692;BME280;61996;49.910;35.562;2023-07-13T06:16:40;99360.38;;;21.81;50.72
73692;BME280;61996;49.910;35.562;2023-07-13T06:19:43;99357.41;;;21.84;50.74
73692;BME280;61996;49.910;35.562;2023-07-13T06:22:46;99356.41;;;21.85;50.74
73692;BME280;61996;49.910;35.562;2023-07-13T06:25:49;99349.03;;;21.87;50.56
73692;BME280;61996;49.910;35.562;2023-07-13T06:28:53;99347.84;;;21.90;50.59
73692;BME280;61996;49.910;35.562;2023-07-13T06:31:56;99356.22;;;21.95;50.38
73692;BME280;61996;49.910;35.562;2023-07-13T06:34:59;99362.25;;;21.97;50.60
73692;BME280;61996;49.910;35.562;2023-07-13T06:38:02;99356.75;;;21.99;50.73
73692;BME280;61996;49.910;35.562;2023-07-13T06:41:06;99354.22;;;21.97;50.53
73692;BME280;61996;49.910;35.562;2023-07-13T06:44:11;99358.41;;;22.00;50.31
73692;BME280;61996;49.910;35.562;2023-07-13T06:47:14;99359.09;;;22.02;50.52
73692;BME280;61996;49.910;35.562;2023-07-13T06:50:17;99357.25;;;22.02;50.32
73692;BME280;61996;49.910;35.562;2023-07-13T06:53:20;99353.91;;;22.00;50.27
73692;BME280;61996;49.910;35.562;2023-07-13T06:56:23;99358.06;;;22.03;50.15
73692;BME280;61996;49.910;35.562;2023-07-13T06:59:27;99349.88;;;22.04;49.48
73692;BME280;61996;49.910;35.562;2023-07-13T07:02:30;99359.75;;;22.04;49.67
73692;BME280;61996;49.910;35.562;2023-07-13T07:05:33;99339.69;;;22.08;49.66
73692;BME280;61996;49.910;35.562;2023-07-13T07:08:36;99347.88;;;22.06;49.23
73692;BME280;61996;49.910;35.562;2023-07-13T07:11:38;99348.72;;;22.07;49.15
73692;BME280;61996;49.910;35.562;2023-07-13T07:15:03;99343.22;;;22.08;49.03
73692;BME280;61996;49.910;35.562;2023-07-13T07:18:06;99335.84;;;22.10;48.78
73692;BME280;61996;49.910;35.562;2023-07-13T07:21:09;99343.03;;;22.10;48.78
73692;BME280;61996;49.910;35.562;2023-07-13T07:24:13;99351.44;;;22.15;48.95
73692;BME280;61996;49.910;35.562;2023-07-13T07:27:17;99339.03;;;22.14;48.97
73692;BME280;61996;49.910;35.562;2023-07-13T07:30:24;99337.03;;;22.16;48.86
73692;BME280;61996;49.910;35.562;2023-07-13T07:33:30;99333.34;;;22.17;48.59
73692;BME280;61996;49.910;35.562;2023-07-13T07:36:32;99352.78;;;22.19;48.84
73692;BME280;61996;49.910;35.562;2023-07-13T07:39:38;99351.06;;;22.18;49.26
73692;BME280;61996;49.910;35.562;2023-07-13T07:42:46;99333.34;;;22.17;48.58
73692;BME280;61996;49.910;35.562;2023-07-13T07:45:50;99345.91;;;22.16;48.69
73692;BME280;61996;49.910;35.562;2023-07-13T07:48:53;99353.44;;;22.21;49.20
73692;BME280;61996;49.910;35.562;2023-07-13T07:51:56;99349.09;;;22.20;49.12
73692;BME280;61996;49.910;35.562;2023-07-13T07:54:58;99359.97;;;22.19;49.27
73692;BME280;61996;49.910;35.562;2023-07-13T07:58:04;99352.59;;;22.21;48.60
73692;BME280;61996;49.910;35.562;2023-07-13T08:01:29;99355.47;;;22.19;49.15
73692;BME280;61996;49.910;35.562;2023-07-13T08:04:35;99344.56;;;22.21;49.36
73692;BME280;61996;49.910;35.562;2023-07-13T08:07:40;99356.59;;;22.25;49.20
73692;BME280;61996;49.910;35.562;2023-07-13T08:10:43;99370.16;;;22.31;48.69
73692;BME280;61996;49.910;35.562;2023-07-13T08:13:46;99350.28;;;22.26;48.84
73692;BME280;61996;49.910;35.562;2023-07-13T08:16:53;99346.59;;;22.27;49.10
73692;BME280;61996;49.910;35.562;2023-07-13T08:19:56;99346.72;;;22.25;48.62
73692;BME280;61996;49.910;35.562;2023-07-13T08:22:59;99338.53;;;22.27;49.18
73692;BME280;61996;49.910;35.562;2023-07-13T08:26:02;99348.06;;;22.29;48.76
73692;BME280;61996;49.910;35.562;2023-07-13T08:29:06;99345.56;;;22.28;48.90
73692;BME280;61996;49.910;35.562;2023-07-13T08:32:10;99342.06;;;22.27;48.88
73692;BME280;61996;49.910;35.562;2023-07-13T08:35:13;99339.69;;;22.24;49.04
73692;BME280;61996;49.910;35.562;2023-07-13T08:38:17;99347.75;;;22.32;49.11
73692;BME280;61996;49.910;35.562;2023-07-13T08:41:21;99344.06;;;22.33;49.64
73692;BME280;61996;49.910;35.562;2023-07-13T08:44:25;99345.09;;;22.32;49.26
73692;BME280;61996;49.910;35.562;2023-07-13T08:47:31;99355.78;;;22.32;49.63
73692;BME280;61996;49.910;35.562;2023-07-13T08:50:47;99348.41;;;22.34;49.51
73692;BME280;61996;49.910;35.562;2023-07-13T08:54:02;99345.91;;;22.33;49.19
73692;BME280;61996;49.910;35.562;2023-07-13T08:57:09;99337.03;;;22.32;49.50
73692;BME280;61996;49.910;35.562;2023-07-13T09:00:14;99345.38;;;22.37;49.47
73692;BME280;61996;49.910;35.562;2023-07-13T09:03:20;99342.88;;;22.36;49.46
73692;BME280;61996;49.910;35.562;2023-07-13T09:06:27;99346.75;;;22.41;49.73
73692;BME280;61996;49.910;35.562;2023-07-13T09:09:36;99360.16;;;22.33;50.18
73692;BME280;61996;49.910;35.562;2023-07-13T09:12:45;99360.63;;;22.37;49.43
73692;BME280;61996;49.910;35.562;2023-07-13T09:15:49;99354.78;;;22.33;49.80
73692;BME280;61996;49.910;35.562;2023-07-13T09:18:56;99355.78;;;22.40;49.28
73692;BME280;61996;49.910;35.562;2023-07-13T09:22:02;99357.94;;;22.37;49.42
73692;BME280;61996;49.910;35.562;2023-07-13T09:25:11;99354.59;;;22.35;49.56
73692;BME280;61996;49.910;35.562;2023-07-13T09:28:22;99353.25;;;22.31;49.79
73692;BME280;61996;49.910;35.562;2023-07-13T09:31:28;99356.47;;;22.34;49.99
73692;BME280;61996;49.910;35.562;2023-07-13T09:34:37;99354.59;;;22.35;49.51
73692;BME280;61996;49.910;35.562;2023-07-13T09:37:40;99349.44;;;22.33;49.81
73692;BME280;61996;49.910;35.562;2023-07-13T09:41:04;99340.69;;;22.31;50.21
73692;BME280;61996;49.910;35.562;2023-07-13T09:44:18;99339.72;;;22.32;50.12
73692;BME280;61996;49.910;35.562;2023-07-13T09:47:30;99337.03;;;22.32;50.31
73692;BME280;61996;49.910;35.562;2023-07-13T09:50:35;99339.72;;;22.32;50.10
73692;BME280;61996;49.910;35.562;2023-07-13T09:53:38;99339.53;;;22.34;50.06
73692;BME280;61996;49.910;35.562;2023-07-13T09:56:43;99350.91;;;22.36;50.24
73692;BME280;61996;49.910;35.562;2023-07-13T09:59:47;99338.38;;;22.36;50.36
73692;BME280;61996;49.910;35.562;2023-07-13T10:03:00;99330.50;;;22.35;50.37
73692;BME280;61996;49.910;35.562;2023-07-13T10:06:11;99326.16;;;22.34;50.19
73692;BME280;61996;49.910;35.562;2023-07-13T10:09:15;99320.63;;;22.35;50.51
73692;BME280;61996;49.910;35.562;2023-07-13T10:12:18;99315.44;;;22.34;50.52
73692;BME280;61996;49.910;35.562;2023-07-13T10:15:22;99318.94;;;22.34;50.51
73692;BME280;61996;49.910;35.562;2023-07-13T10:18:27;99314.06;;;22.38;50.46
73692;BME280;61996;49.910;35.562;2023-07-13T10:21:34;99303.03;;;22.41;50.27
73692;BME280;61996;49.910;35.562;2023-07-13T10:24:38;99301.38;;;22.40;50.53
73692;BME280;61996;49.910;35.562;2023-07-13T10:27:41;99301.88;;;22.35;50.65
73692;BME280;61996;49.910;35.562;2023-07-13T10:30:45;99305.03;;;22.39;50.43
73692;BME280;61996;49.910;35.562;2023-07-13T10:33:49;99298.84;;;22.38;50.62
73692;BME280;61996;49.910;35.562;2023-07-13T10:36:54;99300.19;;;22.42;50.53
73692;BME280;61996;49.910;35.562;2023-07-13T10:39:57;99295.84;;;22.41;50.64
73692;BME280;61996;49.910;35.562;2023-07-13T10:43:02;99292.13;;;22.42;50.48
73692;BME280;61996;49.910;35.562;2023-07-13T10:46:08;99288.28;;;22.45;50.33
73692;BME280;61996;49.910;35.562;2023-07-13T10:49:11;99281.25;;;22.44;50.46
73692;BME280;61996;49.910;35.562;2023-07-13T10:55:35;99280.91;;;22.47;50.45
73692;BME280;61996;49.910;35.562;2023-07-13T10:58:42;99278.72;;;22.51;50.75
73692;BME280;61996;49.910;35.562;2023-07-13T11:01:50;99267.81;;;22.52;50.64
73692;BME280;61996;49.910;35.562;2023-07-13T11:04:53;99280.06;;;22.55;50.69
73692;BME280;61996;49.910;35.562;2023-07-13T11:08:02;99287.75;;;22.58;50.39
73692;BME280;61996;49.910;35.562;2023-07-13T11:14:29;99275.38;;;22.57;50.26
73692;BME280;61996;49.910;35.562;2023-07-13T11:17:34;99272.84;;;22.55;50.91
73692;BME280;61996;49.910;35.562;2023-07-13T11:20:38;99270.00;;;22.57;50.84
73692;BME280;61996;49.910;35.562;2023-07-13T11:23:42;99265.47;;;22.57;50.33
73692;BME280;61996;49.910;35.562;2023-07-13T11:26:50;99260.28;;;22.56;50.92
73692;BME280;61996;49.910;35.562;2023-07-13T11:29:55;99270.66;;;22.67;50.92
73692;BME280;61996;49.910;35.562;2023-07-13T11:33:16;99272.81;;;22.71;50.99
73692;BME280;61996;49.910;35.562;2023-07-13T11:36:21;99267.28;;;22.65;50.76
73692;BME280;61996;49.910;35.562;2023-07-13T11:39:28;99258.41;;;22.64;51.10
73692;BME280;61996;49.910;35.562;2023-07-13T11:42:33;99259.06;;;22.66;50.91
73692;BME280;61996;49.910;35.562;2023-07-13T11:45:37;99249.22;;;22.67;51.04
73692;BME280;61996;49.910;35.562;2023-07-13T11:48:49;99235.63;;;22.68;51.03
73692;BME280;61996;49.910;35.562;2023-07-13T11:51:52;99233.97;;;22.67;51.12
73692;BME280;61996;49.910;35.562;2023-07-13T11:54:56;99220.84;;;22.73;51.05
73692;BME280;61996;49.910;35.562;2023-07-13T11:58:01;99223.38;;;22.74;51.18
73692;BME280;61996;49.910;35.562;2023-07-13T12:01:06;99211.28;;;22.78;51.46
73692;BME280;61996;49.910;35.562;2023-07-13T12:04:19;99211.66;;;22.75;51.11
73692;BME280;61996;49.910;35.562;2023-07-13T12:07:24;99213.97;;;22.78;51.13
73692;BME280;61996;49.910;35.562;2023-07-13T12:10:27;99207.09;;;22.84;51.57
73692;BME280;61996;49.910;35.562;2023-07-13T12:13:34;99195.84;;;22.80;51.19
73692;BME280;61996;49.910;35.562;2023-07-13T12:16:39;99195.34;;;22.85;51.57
73692;BME280;61996;49.910;35.562;2023-07-13T12:19:43;99193.84;;;22.82;51.07
73692;BME280;61996;49.910;35.562;2023-07-13T12:22:46;99185.16;;;22.88;51.22
73692;BME280;61996;49.910;35.562;2023-07-13T12:25:49;99178.06;;;22.95;51.12
73692;BME280;61996;49.910;35.562;2023-07-13T12:28:53;99170.53;;;22.91;50.96
73692;BME280;61996;49.910;35.562;2023-07-13T12:31:59;99173.53;;;22.96;51.11
73692;BME280;61996;49.910;35.562;2023-07-13T12:35:12;99165.00;;;22.92;51.29
73692;BME280;61996;49.910;35.562;2023-07-13T12:38:16;99167.59;;;23.09;51.24
73692;BME280;61996;49.910;35.562;2023-07-13T12:41:19;99162.63;;;22.97;51.25
73692;BME280;61996;49.910;35.562;2023-07-13T12:44:25;99152.22;;;23.03;51.20
73692;BME280;61996;49.910;35.562;2023-07-13T12:47:31;99144.94;;;23.11;51.87
73692;BME280;61996;49.910;35.562;2023-07-13T12:50:45;99152.22;;;23.03;51.20
73692;BME280;61996;49.910;35.562;2023-07-13T12:53:50;99156.44;;;22.97;51.39
73692;BME280;61996;49.910;35.562;2023-07-13T12:56:56;99160.13;;;22.96;51.30
73692;BME280;61996;49.910;35.562;2023-07-13T13:00:00;99150.56;;;22.93;51.63
73692;BME280;61996;49.910;35.562;2023-07-13T13:03:20;99151.41;;;22.94;51.50
73692;BME280;61996;49.910;35.562;2023-07-13T13:06:28;99146.88;;;22.94;51.49
73692;BME280;61996;49.910;35.562;2023-07-13T13:09:31;99147.56;;;22.96;51.55
73692;BME280;61996;49.910;35.562;2023-07-13T13:12:35;99143.03;;;22.97;51.48
73692;BME280;61996;49.910;35.562;2023-07-13T13:15:38;99144.69;;;22.98;51.67
73692;BME280;61996;49.910;35.562;2023-07-13T13:18:42;99150.88;;;22.98;51.49
73692;BME280;61996;49.910;35.562;2023-07-13T13:21:45;99143.50;;;23.01;51.24
73692;BME280;61996;49.910;35.562;2023-07-13T13:24:49;99144.31;;;23.01;51.46
73692;BME280;61996;49.910;35.562;2023-07-13T13:27:51;99148.50;;;23.04;51.18
73692;BME280;61996;49.910;35.562;2023-07-13T13:30:55;99142.13;;;23.05;51.36
73692;BME280;61996;49.910;35.562;2023-07-13T13:34:04;99135.75;;;23.06;51.49
73692;BME280;61996;49.910;35.562;2023-07-13T13:37:15;99137.41;;;23.07;51.53
73692;BME280;61996;49.910;35.562;2023-07-13T13:40:20;99141.94;;;23.06;51.50
73692;BME280;61996;49.910;35.562;2023-07-13T13:43:24;99127.53;;;23.07;51.03
73692;BME280;61996;49.910;35.562;2023-07-13T13:46:28;99130.06;;;23.09;50.96
73692;BME280;61996;49.910;35.562;2023-07-13T13:49:33;99131.72;;;23.10;51.60
73692;BME280;61996;49.910;35.562;2023-07-13T13:52:37;99125.53;;;23.09;51.29
73692;BME280;61996;49.910;35.562;2023-07-13T13:55:41;99119.78;;;23.12;51.42
73692;BME280;61996;49.910;35.562;2023-07-13T13:58:45;99125.34;;;23.11;51.53
73692;BME280;61996;49.910;35.562;2023-07-13T14:01:48;99122.47;;;23.12;51.51
73692;BME280;61996;49.910;35.562;2023-07-13T14:04:55;99122.28;;;23.14;51.34
73692;BME280;61996;49.910;35.562;2023-07-13T14:07:59;99114.41;;;23.12;51.48
73692;BME280;61996;49.910;35.562;2023-07-13T14:11:02;99113.72;;;23.18;51.05
73692;BME280;61996;49.910;35.562;2023-07-13T14:14:05;99109.19;;;23.19;50.98
73692;BME280;61996;49.910;35.562;2023-07-13T14:17:11;99109.59;;;23.31;50.92
73692;BME280;61996;49.910;35.562;2023-07-13T14:20:24;99108.81;;;23.22;50.90
73692;BME280;61996;49.910;35.562;2023-07-13T14:23:27;99113.00;;;23.24;51.22
73692;BME280;61996;49.910;35.562;2023-07-13T14:26:31;99097.25;;;23.21;51.15
73692;BME280;61996;49.910;35.562;2023-07-13T14:29:35;99090.41;;;23.19;51.18
73692;BME280;61996;49.910;35.562;2023-07-13T14:32:37;99089.19;;;23.21;51.32
73692;BME280;61996;49.910;35.562;2023-07-13T14:35:42;99084.31;;;23.25;51.41
73692;BME280;61996;49.910;35.562;2023-07-13T14:38:45;99074.81;;;23.37;51.22
73692;BME280;61996;49.910;35.562;2023-07-13T14:41:49;99076.50;;;23.38;51.19
73692;BME280;61996;49.910;35.562;2023-07-13T14:44:53;99074.94;;;23.44;50.90
73692;BME280;61996;49.910;35.562;2023-07-13T14:47:56;99068.91;;;23.42;50.87
73692;BME280;61996;49.910;35.562;2023-07-13T14:51:01;99075.66;;;23.38;51.24
73692;BME280;61996;49.910;35.562;2023-07-13T14:54:04;99067.31;;;23.33;51.08
73692;BME280;61996;49.910;35.562;2023-07-13T14:57:08;99058.88;;;23.36;51.37
73692;BME280;61996;49.910;35.562;2023-07-13T15:00:14;99061.56;;;23.36;51.13
73692;BME280;61996;49.910;35.562;2023-07-13T15:03:18;99055.38;;;23.35;51.25
73692;BME280;61996;49.910;35.562;2023-07-13T15:06:24;99058.72;;;23.37;51.65
73692;BME280;61996;49.910;35.562;2023-07-13T15:09:28;99055.84;;;23.39;51.21
73692;BME280;61996;49.910;35.562;2023-07-13T15:12:31;99058.06;;;23.35;51.46
73692;BME280;61996;49.910;35.562;2023-07-13T15:15:34;99052.53;;;23.37;51.46
73692;BME280;61996;49.910;35.562;2023-07-13T15:18:38;99057.03;;;23.36;51.52
73692;BME280;61996;49.910;35.562;2023-07-13T15:21:43;99058.72;;;23.37;51.32
73692;BME280;61996;49.910;35.562;2023-07-13T15:24:46;99064.94;;;23.38;51.54
73692;BME280;61996;49.910;35.562;2023-07-13T15:27:49;99057.91;;;23.37;51.54
73692;BME280;61996;49.910;35.562;2023-07-13T15:30:52;99053.38;;;23.37;51.43
73692;BME280;61996;49.910;35.562;2023-07-13T15:33:57;99054.34;;;23.36;51.53
73692;BME280;61996;49.910;35.562;2023-07-13T15:37:01;99057.91;;;23.37;51.76
73692;BME280;61996;49.910;35.562;2023-07-13T15:40:05;99054.53;;;23.35;51.53
73692;BME280;61996;49.910;35.562;2023-07-13T15:43:10;99058.34;;;23.40;51.79
73692;BME280;61996;49.910;35.562;2023-07-13T15:46:13;99060.75;;;23.50;51.54
73692;BME280;61996;49.910;35.562;2023-07-13T15:49:16;99049.66;;;23.38;51.43
73692;BME280;61996;49.910;35.562;2023-07-13T15:52:21;99055.38;;;23.35;51.58
73692;BME280;61996;49.910;35.562;2023-07-13T15:55:25;99056.19;;;23.36;51.69
73692;BME280;61996;49.910;35.562;2023-07-13T15:58:28;99052.88;;;23.34;51.61
73692;BME280;61996;49.910;35.562;2023-07-13T16:01:31;99057.41;;;23.33;51.53
73692;BME280;61996;49.910;35.562;2023-07-13T16:04:35;99060.09;;;23.33;51.34
73692;BME280;61996;49.910;35.562;2023-07-13T16:07:39;99059.25;;;23.33;51.58
73692;BME280;61996;49.910;35.562;2023-07-13T16:10:42;99065.03;;;23.44;51.96